createdAt,value
2018-01-03T00:00:02.342Z,94.74
2018-01-03T00:01:02.337Z,94.65
2018-01-03T00:02:02.332Z,94.84
2018-01-03T00:03:02.328Z,94.93
2018-01-03T00:04:02.321Z,95.12
2018-01-03T00:05:02.312Z,95.41
2018-01-03T00:06:02.299Z,94.93
2018-01-03T00:07:02.307Z,95.26
2018-01-03T00:08:02.295Z,95.17
2018-01-03T00:09:02.294Z,96.12
2018-01-03T00:10:02.289Z,96.12
2018-01-03T00:11:02.284Z,96.02
2018-01-03T00:12:02.262Z,96.02
2018-01-03T00:13:02.269Z,95.93
2018-01-03T00:14:02.262Z,95.93
2018-01-03T00:15:02.261Z,95.83
2018-01-03T00:16:02.242Z,96.31
2018-01-03T00:17:02.244Z,96.69
2018-01-03T00:18:02.239Z,96.21
2018-01-03T00:19:02.232Z,96.21
2018-01-03T00:20:02.229Z,96.69
2018-01-03T00:21:02.209Z,96.59
2018-01-03T00:22:02.210Z,96.88
2018-01-03T00:23:02.198Z,96.78
2018-01-03T00:24:02.209Z,96.69
2018-01-03T00:25:02.199Z,96.50
2018-01-03T00:26:02.182Z,97.63
2018-01-03T00:27:02.186Z,96.88
2018-01-03T00:28:02.180Z,96.88
2018-01-03T00:29:02.175Z,96.59
2018-01-03T00:30:02.171Z,96.21
2018-01-03T00:31:02.164Z,96.59
2018-01-03T00:32:02.159Z,96.69
2018-01-03T00:33:02.144Z,96.97
2018-01-03T00:34:02.140Z,96.69
2018-01-03T00:35:02.139Z,96.31
2018-01-03T00:36:02.135Z,96.40
2018-01-03T00:37:02.129Z,96.69
2018-01-03T00:38:02.114Z,97.06
2018-01-03T00:39:02.108Z,96.78
2018-01-03T00:40:02.166Z,96.78
2018-01-03T00:41:02.094Z,97.06
2018-01-03T00:42:02.089Z,96.88
2018-01-03T00:43:02.083Z,96.78
2018-01-03T00:44:02.099Z,96.97
2018-01-03T00:45:02.081Z,96.88
2018-01-03T00:46:02.067Z,96.40
2018-01-03T00:47:02.060Z,97.06
2018-01-03T00:48:02.053Z,96.69
2018-01-03T00:49:02.060Z,96.59
2018-01-03T00:50:02.057Z,96.97
2018-01-03T00:51:02.056Z,97.06
2018-01-03T00:52:02.047Z,96.88
2018-01-03T00:53:02.048Z,97.73
2018-01-03T00:54:02.026Z,97.35
2018-01-03T00:55:02.012Z,97.44
2018-01-03T00:56:02.011Z,97.73
2018-01-03T00:57:02.002Z,97.44
2018-01-03T00:58:01.995Z,97.44
2018-01-03T00:59:01.991Z,97.63
2018-01-03T01:00:01.984Z,97.63
2018-01-03T01:01:01.983Z,97.16
2018-01-03T01:02:01.972Z,97.73
2018-01-03T01:03:01.964Z,97.54
2018-01-03T01:04:01.960Z,97.82
2018-01-03T01:05:01.953Z,97.73
2018-01-03T01:06:01.947Z,98.01
2018-01-03T01:07:01.940Z,97.73
2018-01-03T01:08:01.937Z,97.73
2018-01-03T01:09:01.938Z,98.20
2018-01-03T01:10:01.926Z,98.58
2018-01-03T01:11:01.919Z,97.92
2018-01-03T01:12:01.913Z,98.01
2018-01-03T01:13:01.906Z,97.82
2018-01-03T01:14:01.906Z,97.54
2018-01-03T01:15:01.897Z,97.25
2018-01-03T01:16:01.893Z,96.40
2018-01-03T01:17:01.886Z,96.97
2018-01-03T01:18:01.879Z,97.35
2018-01-03T01:19:01.876Z,97.35
2018-01-03T01:20:01.865Z,97.25
2018-01-03T01:21:01.864Z,97.35
2018-01-03T01:22:01.857Z,97.73
2018-01-03T01:23:01.846Z,97.82
2018-01-03T01:24:01.845Z,97.44
2018-01-03T01:25:01.860Z,97.92
2018-01-03T01:26:01.833Z,97.82
2018-01-03T01:27:01.835Z,97.82
2018-01-03T01:28:01.819Z,97.16
2018-01-03T01:29:01.823Z,97.82
2018-01-03T01:30:01.808Z,97.44
2018-01-03T01:31:01.800Z,96.78
2018-01-03T01:32:01.800Z,96.78
2018-01-03T01:33:01.795Z,96.88
2018-01-03T01:34:01.788Z,97.35
2018-01-03T01:35:01.779Z,97.82
2018-01-03T01:36:01.772Z,97.63
2018-01-03T01:37:01.769Z,96.78
2018-01-03T01:38:01.762Z,96.88
2018-01-03T01:39:01.784Z,96.78
2018-01-03T01:40:01.749Z,96.50
2018-01-03T01:41:01.747Z,96.31
2018-01-03T01:42:01.738Z,96.02
2018-01-03T01:43:01.736Z,96.40
2018-01-03T01:44:01.726Z,96.88
2018-01-03T01:45:01.726Z,97.06
2018-01-03T01:46:01.716Z,97.63
2018-01-03T01:47:01.720Z,97.16
2018-01-03T01:48:01.705Z,96.97
2018-01-03T01:49:01.698Z,97.16
2018-01-03T01:50:01.700Z,97.82
2018-01-03T01:51:01.685Z,97.25
2018-01-03T01:52:01.681Z,97.63
2018-01-03T01:53:01.696Z,97.82
2018-01-03T01:54:01.673Z,97.92
2018-01-03T01:55:01.701Z,98.39
2018-01-03T01:56:01.691Z,97.63
2018-01-03T01:57:01.653Z,98.11
2018-01-03T01:58:01.647Z,98.20
2018-01-03T01:59:01.638Z,98.01
2018-01-03T02:00:01.635Z,98.20
2018-01-03T02:01:01.636Z,97.63
2018-01-03T02:02:01.624Z,98.30
2018-01-03T02:03:01.616Z,97.82
2018-01-03T02:04:01.614Z,98.01
2018-01-03T02:05:01.606Z,98.20
2018-01-03T02:06:01.600Z,98.20
2018-01-03T02:07:01.604Z,98.20
2018-01-03T02:08:01.589Z,97.82
2018-01-03T02:09:01.580Z,98.30
2018-01-03T02:10:01.575Z,98.11
2018-01-03T02:11:01.573Z,99.05
2018-01-03T02:12:01.570Z,99.05
2018-01-03T02:13:01.558Z,98.68
2018-01-03T02:14:01.554Z,98.68
2018-01-03T02:15:04.407Z,98.30
2018-01-03T02:16:01.544Z,98.11
2018-01-03T02:17:01.587Z,97.92
2018-01-03T02:18:01.529Z,98.30
2018-01-03T02:19:01.528Z,97.54
2018-01-03T02:20:01.525Z,97.92
2018-01-03T02:21:01.515Z,98.11
2018-01-03T02:22:01.505Z,98.30
2018-01-03T02:23:01.500Z,98.49
2018-01-03T02:24:01.511Z,98.86
2018-01-03T02:25:01.488Z,98.77
2018-01-03T02:26:01.484Z,98.86
2018-01-03T02:27:01.478Z,98.86
2018-01-03T02:28:01.471Z,98.86
2018-01-03T02:29:01.482Z,99.15
2018-01-03T02:30:01.463Z,98.77
2018-01-03T02:31:01.456Z,99.05
2018-01-03T02:32:01.450Z,98.86
2018-01-03T02:33:01.444Z,99.15
2018-01-03T02:34:01.437Z,99.15
2018-01-03T02:35:01.428Z,98.96
2018-01-03T02:36:01.422Z,99.52
2018-01-03T02:37:01.437Z,99.71
2018-01-03T02:38:01.420Z,99.71
2018-01-03T02:39:01.404Z,99.99
2018-01-03T02:40:01.403Z,99.71
2018-01-03T02:41:01.398Z,99.81
2018-01-03T02:42:01.389Z,99.99
2018-01-03T02:43:01.381Z,99.99
2018-01-03T02:44:01.374Z,99.99
2018-01-03T02:45:01.382Z,99.71
2018-01-03T02:46:01.365Z,99.99
2018-01-03T02:47:01.358Z,99.71
2018-01-03T02:48:01.350Z,99.15
2018-01-03T02:49:01.357Z,99.15
2018-01-03T02:50:01.342Z,98.96
2018-01-03T02:51:01.341Z,98.49
2018-01-03T02:52:01.337Z,98.96
2018-01-03T02:53:01.332Z,99.43
2018-01-03T02:54:01.314Z,99.24
2018-01-03T02:55:01.309Z,98.77
2018-01-03T02:56:01.304Z,99.15
2018-01-03T02:57:01.297Z,98.77
2018-01-03T02:58:01.314Z,99.24
2018-01-03T02:59:01.291Z,99.05
2018-01-03T03:00:01.280Z,98.68
2018-01-03T03:01:01.280Z,99.43
2018-01-03T03:02:01.284Z,98.58
2018-01-03T03:03:01.270Z,99.33
2018-01-03T03:04:01.278Z,98.86
2018-01-03T03:05:01.261Z,98.86
2018-01-03T03:06:01.244Z,99.15
2018-01-03T03:07:01.239Z,99.52
2018-01-03T03:08:01.249Z,99.71
2018-01-03T03:09:01.228Z,99.99
2018-01-03T03:10:01.220Z,99.62
2018-01-03T03:11:01.223Z,99.71
2018-01-03T03:12:01.210Z,99.62
2018-01-03T03:13:01.206Z,99.62
2018-01-03T03:14:01.199Z,99.90
2018-01-03T03:15:01.195Z,99.90
2018-01-03T03:16:01.183Z,99.62
2018-01-03T03:17:01.181Z,99.52
2018-01-03T03:18:01.173Z,99.15
2018-01-03T03:19:01.167Z,99.71
2018-01-03T03:20:01.160Z,99.90
2018-01-03T03:21:01.158Z,99.24
2018-01-03T03:22:01.160Z,99.43
2018-01-03T03:23:01.152Z,99.15
2018-01-03T03:24:01.147Z,98.96
2018-01-03T03:25:01.143Z,98.58
2018-01-03T03:26:01.131Z,98.49
2018-01-03T03:27:01.120Z,98.68
2018-01-03T03:28:01.115Z,99.33
2018-01-03T03:29:01.112Z,98.86
2018-01-03T03:30:01.109Z,98.58
2018-01-03T03:31:01.101Z,98.30
2018-01-03T03:32:01.094Z,98.82
2018-01-03T03:33:01.090Z,98.82
2018-01-03T03:34:01.079Z,98.44
2018-01-03T03:35:01.074Z,98.06
2018-01-03T03:36:01.070Z,98.16
2018-01-03T03:37:01.064Z,98.44
2018-01-03T03:38:01.074Z,98.54
2018-01-03T03:39:01.055Z,98.25
2018-01-03T03:40:01.044Z,99.10
2018-01-03T03:41:01.043Z,99.29
2018-01-03T03:42:01.036Z,98.44
2018-01-03T03:43:01.028Z,98.72
2018-01-03T03:44:01.025Z,98.72
2018-01-03T03:45:01.016Z,98.72
2018-01-03T03:46:01.041Z,99.20
2018-01-03T03:47:01.012Z,98.35
2018-01-03T03:48:01.008Z,99.29
2018-01-03T03:49:01.004Z,99.58
2018-01-03T03:50:01.016Z,99.96
2018-01-03T03:51:01.005Z,99.48
2018-01-03T03:52:00.978Z,99.67
2018-01-03T03:53:01.013Z,99.39
2018-01-03T03:54:00.994Z,99.96
2018-01-03T03:55:00.968Z,99.58
2018-01-03T03:56:00.985Z,99.99
2018-01-03T03:57:00.950Z,99.99
2018-01-03T03:58:00.966Z,99.77
2018-01-03T03:59:00.940Z,99.99
2018-01-03T04:00:00.964Z,99.99
2018-01-03T04:01:00.931Z,99.99
2018-01-03T04:02:00.922Z,99.99
2018-01-03T04:03:00.922Z,99.99
2018-01-03T04:04:00.927Z,99.99
2018-01-03T04:05:00.914Z,99.99
2018-01-03T04:06:00.931Z,99.99
2018-01-03T04:07:00.907Z,99.99
2018-01-03T04:08:00.893Z,99.99
2018-01-03T04:09:00.899Z,99.99
2018-01-03T04:10:00.891Z,99.99
2018-01-03T04:11:00.901Z,99.99
2018-01-03T04:12:00.870Z,99.99
2018-01-03T04:13:00.898Z,99.99
2018-01-03T04:14:00.899Z,99.99
2018-01-03T04:15:00.851Z,99.99
2018-01-03T04:16:00.852Z,99.99
2018-01-03T04:17:00.839Z,99.99
2018-01-03T04:18:00.847Z,99.99
2018-01-03T04:19:00.831Z,99.99
2018-01-03T04:20:00.823Z,99.99
2018-01-03T04:21:00.887Z,99.99
2018-01-03T04:22:00.812Z,99.99
2018-01-03T04:23:00.808Z,99.99
2018-01-03T04:24:00.805Z,99.99
2018-01-03T04:25:00.801Z,99.99
2018-01-03T04:26:00.802Z,99.99
2018-01-03T04:27:00.843Z,99.99
2018-01-03T04:28:00.807Z,99.99
2018-01-03T04:29:00.783Z,99.99
2018-01-03T04:30:00.792Z,99.99
2018-01-03T04:31:00.816Z,99.99
2018-01-03T04:32:00.769Z,99.99
2018-01-03T04:33:00.756Z,99.99
2018-01-03T04:34:00.754Z,99.99
2018-01-03T04:35:00.741Z,99.99
2018-01-03T04:36:00.741Z,99.99
2018-01-03T04:37:00.766Z,99.44
2018-01-03T04:38:00.771Z,99.91
2018-01-03T04:39:00.726Z,99.63
2018-01-03T04:40:00.749Z,99.99
2018-01-03T04:41:00.715Z,99.72
2018-01-03T04:42:00.706Z,99.99
2018-01-03T04:43:00.705Z,99.99
2018-01-03T04:44:00.710Z,99.99
2018-01-03T04:45:00.689Z,99.82
2018-01-03T04:46:00.689Z,99.99
2018-01-03T04:47:00.684Z,99.72
2018-01-03T04:48:00.676Z,99.06
2018-01-03T04:49:00.674Z,99.53
2018-01-03T04:50:00.670Z,98.39
2018-01-03T04:51:00.660Z,98.77
2018-01-03T04:52:00.655Z,98.87
2018-01-03T04:53:00.652Z,98.87
2018-01-03T04:54:00.645Z,99.25
2018-01-03T04:55:00.655Z,99.06
2018-01-03T04:56:00.647Z,99.25
2018-01-03T04:57:00.631Z,98.58
2018-01-03T04:58:00.625Z,99.06
2018-01-03T04:59:00.621Z,99.63
2018-01-03T05:00:00.616Z,99.44
2018-01-03T05:01:00.619Z,99.82
2018-01-03T05:02:00.609Z,99.99
2018-01-03T05:03:00.597Z,99.63
2018-01-03T05:04:00.595Z,99.25
2018-01-03T05:05:01.482Z,99.34
2018-01-03T05:06:00.614Z,99.34
2018-01-03T05:07:00.579Z,99.44
2018-01-03T05:08:00.577Z,99.82
2018-01-03T05:09:00.569Z,99.82
2018-01-03T05:10:00.564Z,99.91
2018-01-03T05:11:00.557Z,99.82
2018-01-03T05:12:00.573Z,99.99
2018-01-03T05:13:00.548Z,99.53
2018-01-03T05:14:00.592Z,99.53
2018-01-03T05:15:00.540Z,99.25
2018-01-03T05:16:00.534Z,99.44
2018-01-03T05:17:00.531Z,99.99
2018-01-03T05:18:00.522Z,99.82
2018-01-03T05:19:00.583Z,99.25
2018-01-03T05:20:00.565Z,99.25
2018-01-03T05:21:00.542Z,99.49
2018-01-03T05:22:00.505Z,98.92
2018-01-03T05:23:00.560Z,99.11
2018-01-03T05:24:00.515Z,99.49
2018-01-03T05:25:00.514Z,99.99
2018-01-03T05:26:00.503Z,99.99
2018-01-03T05:27:00.483Z,99.30
2018-01-03T05:28:00.473Z,99.49
2018-01-03T05:29:00.473Z,99.68
2018-01-03T05:30:00.473Z,99.99
2018-01-03T05:31:00.510Z,99.68
2018-01-03T05:32:00.452Z,99.99
2018-01-03T05:33:00.449Z,99.68
2018-01-03T05:34:00.447Z,98.92
2018-01-03T05:35:00.439Z,98.73
2018-01-03T05:36:00.473Z,99.30
2018-01-03T05:37:00.433Z,98.44
2018-01-03T05:38:00.462Z,99.30
2018-01-03T05:39:00.456Z,99.01
2018-01-03T05:40:00.417Z,99.39
2018-01-03T05:41:00.415Z,98.25
2018-01-03T05:42:00.427Z,98.92
2018-01-03T05:43:00.461Z,98.54
2018-01-03T05:44:00.440Z,99.68
2018-01-03T05:45:00.406Z,99.49
2018-01-03T05:46:00.459Z,99.30
2018-01-03T05:47:00.421Z,99.30
2018-01-03T05:48:00.430Z,99.68
2018-01-03T05:49:00.435Z,99.77
2018-01-03T05:50:00.459Z,99.87
2018-01-03T05:51:00.471Z,99.87
2018-01-03T05:52:00.358Z,99.99
2018-01-03T05:53:00.363Z,99.99
2018-01-03T05:54:00.361Z,99.99
2018-01-03T05:55:00.379Z,99.58
2018-01-03T05:56:00.362Z,99.49
2018-01-03T05:57:00.405Z,99.96
2018-01-03T05:58:00.376Z,98.92
2018-01-03T05:59:00.409Z,98.73
2018-01-03T06:00:00.418Z,98.44
2018-01-03T06:01:00.356Z,98.92
2018-01-03T06:02:00.396Z,99.58
2018-01-03T06:03:00.446Z,99.20
2018-01-03T06:04:00.390Z,99.30
2018-01-03T06:05:00.365Z,99.99
2018-01-03T06:06:00.357Z,99.58
2018-01-03T06:07:00.423Z,99.77
2018-01-03T06:08:00.355Z,99.99
2018-01-03T06:09:00.931Z,99.96
2018-01-03T06:10:00.350Z,99.87
2018-01-03T06:11:00.360Z,99.49
2018-01-03T06:12:00.361Z,99.49
2018-01-03T06:13:00.369Z,99.30
2018-01-03T06:14:00.377Z,99.96
2018-01-03T06:15:00.388Z,99.30
2018-01-03T06:16:00.366Z,99.68
2018-01-03T06:17:00.403Z,99.77
2018-01-03T06:18:00.317Z,99.58
2018-01-03T06:19:00.318Z,99.77
2018-01-03T06:20:00.315Z,99.77
2018-01-03T06:21:00.324Z,99.87
2018-01-03T06:22:00.249Z,99.58
2018-01-03T06:23:00.346Z,99.58
2018-01-03T06:24:00.215Z,99.87
2018-01-03T06:25:00.429Z,99.20
2018-01-03T06:26:00.356Z,99.87
2018-01-03T06:27:00.339Z,99.87
2018-01-03T06:28:00.350Z,99.68
2018-01-03T06:29:00.373Z,99.99
2018-01-03T06:30:00.299Z,99.99
2018-01-03T06:31:00.310Z,99.77
2018-01-03T06:32:00.296Z,99.99
2018-01-03T06:33:00.282Z,99.99
2018-01-03T06:34:00.313Z,99.87
2018-01-03T06:35:00.305Z,99.91
2018-01-03T06:36:00.316Z,99.99
2018-01-03T06:37:00.315Z,99.73
2018-01-03T06:38:00.313Z,99.63
2018-01-03T06:39:00.331Z,99.91
2018-01-03T06:40:00.333Z,99.91
2018-01-03T06:41:00.286Z,99.99
2018-01-03T06:42:00.418Z,99.82
2018-01-03T06:43:00.238Z,99.44
2018-01-03T06:44:00.281Z,99.63
2018-01-03T06:45:00.134Z,99.63
2018-01-03T06:46:00.291Z,99.91
2018-01-03T06:47:00.281Z,99.99
2018-01-03T06:48:00.299Z,99.73
2018-01-03T06:49:00.297Z,99.99
2018-01-03T06:50:00.298Z,99.99
2018-01-03T06:51:00.304Z,99.99
2018-01-03T06:52:00.321Z,99.99
2018-01-03T06:53:00.341Z,99.99
2018-01-03T06:54:00.327Z,99.99
2018-01-03T06:55:00.230Z,99.99
2018-01-03T06:56:00.233Z,99.49
2018-01-03T06:57:00.141Z,99.40
2018-01-03T06:58:00.138Z,98.64
2018-01-03T06:59:00.253Z,98.73
2018-01-03T07:00:00.266Z,98.83
2018-01-03T07:01:00.269Z,99.11
2018-01-03T07:02:00.216Z,99.99
2018-01-03T07:03:00.199Z,99.99
2018-01-03T07:04:00.150Z,99.40
2018-01-03T07:05:00.090Z,99.40
2018-01-03T07:06:00.039Z,99.58
2018-01-03T07:07:00.110Z,99.49
2018-01-03T07:08:00.112Z,99.97
2018-01-03T07:09:00.034Z,99.99
2018-01-03T07:10:00.025Z,99.99
2018-01-03T07:11:00.246Z,99.99
2018-01-03T07:12:00.260Z,99.77
2018-01-03T07:13:00.253Z,99.68
2018-01-03T07:14:00.261Z,99.35
2018-01-03T07:15:00.095Z,99.49
2018-01-03T07:16:00.070Z,99.02
2018-01-03T07:17:00.070Z,98.64
2018-01-03T07:18:00.080Z,98.45
2018-01-03T07:18:59.981Z,98.92
2018-01-03T07:19:59.978Z,99.02
2018-01-03T07:20:59.977Z,98.73
2018-01-03T07:21:59.987Z,98.92
2018-01-03T07:22:59.964Z,99.49
2018-01-03T07:24:00.109Z,99.02
2018-01-03T07:25:00.042Z,98.73
2018-01-03T07:26:00.001Z,99.02
2018-01-03T07:27:00.037Z,99.02
2018-01-03T07:27:59.946Z,99.49
2018-01-03T07:28:59.943Z,99.40
2018-01-03T07:29:59.942Z,99.11
2018-01-03T07:30:59.933Z,98.26
2018-01-03T07:31:59.935Z,98.35
2018-01-03T07:32:59.928Z,98.64
2018-01-03T07:34:00.359Z,96.93
2018-01-03T07:35:00.165Z,96.83
2018-01-03T07:36:00.386Z,96.26
2018-01-03T07:37:00.087Z,97.31
2018-01-03T07:37:59.910Z,96.93
2018-01-03T07:38:59.905Z,97.88
2018-01-03T07:39:59.929Z,97.31
2018-01-03T07:40:59.896Z,96.74
2018-01-03T07:41:59.896Z,97.12
2018-01-03T07:42:59.893Z,96.45
2018-01-03T07:44:00.439Z,96.64
2018-01-03T07:44:59.908Z,96.93
2018-01-03T07:45:59.886Z,97.12
2018-01-03T07:46:59.891Z,97.97
2018-01-03T07:47:59.880Z,98.07
2018-01-03T07:48:59.874Z,98.26
2018-01-03T07:49:59.887Z,96.26
2018-01-03T07:50:59.868Z,95.89
2018-01-03T07:51:59.860Z,95.03
2018-01-03T07:52:59.854Z,94.74
2018-01-03T07:53:59.856Z,94.46
2018-01-03T07:54:59.845Z,95.31
2018-01-03T07:55:59.871Z,96.36
2018-01-03T07:56:59.863Z,95.89
2018-01-03T07:57:59.911Z,95.98
2018-01-03T07:58:59.849Z,95.31
2018-01-03T07:59:59.842Z,95.12
2018-01-03T08:00:59.908Z,95.22
2018-01-03T08:01:59.821Z,95.31
2018-01-03T08:02:59.822Z,96.55
2018-01-03T08:03:59.819Z,97.22
2018-01-03T08:04:59.971Z,96.74
2018-01-03T08:05:59.820Z,97.41
2018-01-03T08:06:59.803Z,96.93
2018-01-03T08:07:59.827Z,96.93
2018-01-03T08:08:59.802Z,96.93
2018-01-03T08:09:59.794Z,97.78
2018-01-03T08:10:59.820Z,97.64
2018-01-03T08:11:59.827Z,97.78
2018-01-03T08:12:59.783Z,97.55
2018-01-03T08:13:59.782Z,97.55
2018-01-03T08:14:59.775Z,97.12
2018-01-03T08:15:59.806Z,97.31
2018-01-03T08:16:59.774Z,96.55
2018-01-03T08:17:59.796Z,96.45
2018-01-03T08:18:59.770Z,96.64
2018-01-03T08:19:59.757Z,97.31
2018-01-03T08:20:59.753Z,97.02
2018-01-03T08:21:59.757Z,97.41
2018-01-03T08:22:59.763Z,97.88
2018-01-03T08:23:59.769Z,97.78
2018-01-03T08:24:59.743Z,97.74
2018-01-03T08:25:59.735Z,97.07
2018-01-03T08:26:59.732Z,97.74
2018-01-03T08:27:59.816Z,97.55
2018-01-03T08:28:59.731Z,97.83
2018-01-03T08:29:59.721Z,96.17
2018-01-03T08:30:59.749Z,96.08
2018-01-03T08:31:59.713Z,96.83
2018-01-03T08:32:59.713Z,96.83
2018-01-03T08:33:59.785Z,97.22
2018-01-03T08:34:59.715Z,96.74
2018-01-03T08:35:59.701Z,96.36
2018-01-03T08:37:02.684Z,96.26
2018-01-03T08:38:02.603Z,96.26
2018-01-03T08:39:56.697Z,96.08
2018-01-03T08:40:56.764Z,96.74
2018-01-03T08:42:51.341Z,97.22
2018-01-03T08:43:51.101Z,96.93
2018-01-03T08:45:45.351Z,96.93
2018-01-03T08:46:45.335Z,96.64
2018-01-03T08:48:39.753Z,96.59
2018-01-03T08:49:39.720Z,97.83
2018-01-03T08:51:34.362Z,96.74
2018-01-03T08:52:34.468Z,96.74
2018-01-03T08:54:28.801Z,97.41
2018-01-03T08:55:28.856Z,97.02
2018-01-03T08:57:22.912Z,97.31
2018-01-03T08:58:22.792Z,96.64
2018-01-03T09:00:17.188Z,97.02
2018-01-03T09:01:17.266Z,96.45
2018-01-03T09:03:11.773Z,96.08
2018-01-03T09:04:11.860Z,95.98
2018-01-03T09:06:06.247Z,95.60
2018-01-03T09:07:06.245Z,95.12
2018-01-03T09:09:00.555Z,94.56
2018-01-03T09:10:00.212Z,94.93
2018-01-03T09:11:54.907Z,95.51
2018-01-03T09:12:54.975Z,95.51
2018-01-03T09:14:50.311Z,95.31
2018-01-03T09:15:51.393Z,95.89
2018-01-03T09:17:44.566Z,94.74
2018-01-03T09:18:44.502Z,95.08
2018-01-03T09:19:44.293Z,94.65
2018-01-03T09:20:44.537Z,94.93
2018-01-03T09:21:46.865Z,95.12
2018-01-03T09:22:44.239Z,95.12
2018-01-03T09:23:44.252Z,95.03
2018-01-03T09:24:44.229Z,94.93
2018-01-03T09:25:44.227Z,94.46
2018-01-03T09:26:44.252Z,94.46
2018-01-03T09:27:44.242Z,94.65
2018-01-03T09:28:44.216Z,94.56
2018-01-03T09:29:44.215Z,94.37
2018-01-03T09:30:44.228Z,94.74
2018-01-03T09:31:44.211Z,94.93
2018-01-03T09:32:44.308Z,94.65
2018-01-03T09:33:44.223Z,95.12
2018-01-03T09:34:45.847Z,95.31
2018-01-03T09:35:44.197Z,95.22
2018-01-03T09:36:44.211Z,94.84
2018-01-03T09:37:44.220Z,94.27
2018-01-03T09:38:44.187Z,93.89
2018-01-03T09:39:44.187Z,93.99
2018-01-03T09:40:44.180Z,94.93
2018-01-03T09:41:44.177Z,94.60
2018-01-03T09:42:44.234Z,93.84
2018-01-03T09:43:44.213Z,94.46
2018-01-03T09:44:44.169Z,94.27
2018-01-03T09:45:44.161Z,94.27
2018-01-03T09:46:44.250Z,94.18
2018-01-03T09:47:44.156Z,94.27
2018-01-03T09:48:44.158Z,93.41
2018-01-03T09:49:44.159Z,93.89
2018-01-03T09:50:44.193Z,93.89
2018-01-03T09:51:44.143Z,93.99
2018-01-03T09:52:44.150Z,92.47
2018-01-03T09:53:44.138Z,90.76
2018-01-03T09:54:44.137Z,91.89
2018-01-03T09:55:44.144Z,92.85
2018-01-03T09:56:44.153Z,91.80
2018-01-03T09:57:44.161Z,91.33
2018-01-03T09:58:44.127Z,91.14
2018-01-03T09:59:44.120Z,90.19
2018-01-03T10:00:44.121Z,90.28
2018-01-03T10:01:46.807Z,91.42
2018-01-03T10:02:44.110Z,91.80
2018-01-03T10:03:44.110Z,92.94
2018-01-03T10:04:44.104Z,92.75
2018-01-03T10:05:44.100Z,92.37
2018-01-03T10:06:44.099Z,92.18
2018-01-03T10:07:44.100Z,92.09
2018-01-03T10:08:44.239Z,92.28
2018-01-03T10:09:44.089Z,92.28
2018-01-03T10:10:44.091Z,92.66
2018-01-03T10:11:44.083Z,92.94
2018-01-03T10:12:44.077Z,93.13
2018-01-03T10:13:44.077Z,92.94
2018-01-03T10:14:44.074Z,92.75
2018-01-03T10:15:44.080Z,91.99
2018-01-03T10:16:44.066Z,91.42
2018-01-03T10:17:44.062Z,91.61
2018-01-03T10:18:44.062Z,91.80
2018-01-03T10:19:44.059Z,91.19
2018-01-03T10:20:44.052Z,91.33
2018-01-03T10:21:44.050Z,91.80
2018-01-03T10:22:44.048Z,91.89
2018-01-03T10:23:44.041Z,91.33
2018-01-03T10:24:44.040Z,91.80
2018-01-03T10:25:44.059Z,91.24
2018-01-03T10:26:44.035Z,91.14
2018-01-03T10:27:44.035Z,91.33
2018-01-03T10:28:44.027Z,91.99
2018-01-03T10:29:44.047Z,91.99
2018-01-03T10:30:44.023Z,91.80
2018-01-03T10:31:44.017Z,91.61
2018-01-03T10:32:44.016Z,91.99
2018-01-03T10:33:44.010Z,91.99
2018-01-03T10:34:44.011Z,91.71
2018-01-03T10:35:44.008Z,91.99
2018-01-03T10:36:44.001Z,92.09
2018-01-03T10:37:44.027Z,91.42
2018-01-03T10:38:43.995Z,92.94
2018-01-03T10:39:43.991Z,92.66
2018-01-03T10:40:44.010Z,89.67
2018-01-03T10:41:43.998Z,89.81
2018-01-03T10:42:43.984Z,90.91
2018-01-03T10:43:44.005Z,92.71
2018-01-03T10:44:43.982Z,94.08
2018-01-03T10:45:44.033Z,94.74
2018-01-03T10:46:43.966Z,96.17
2018-01-03T10:47:43.967Z,96.83
2018-01-03T10:48:44.014Z,97.02
2018-01-03T10:49:43.995Z,97.40
2018-01-03T10:50:43.953Z,97.02
2018-01-03T10:51:43.967Z,97.30
2018-01-03T10:52:43.947Z,97.63
2018-01-03T10:53:43.940Z,97.59
2018-01-03T10:54:43.944Z,97.25
2018-01-03T10:55:43.933Z,97.92
2018-01-03T10:56:43.933Z,97.59
2018-01-03T10:57:43.921Z,97.78
2018-01-03T10:58:43.918Z,97.73
2018-01-03T10:59:43.935Z,97.63
2018-01-03T11:00:43.936Z,98.01
2018-01-03T11:01:43.903Z,97.97
2018-01-03T11:02:43.909Z,98.01
2018-01-03T11:03:43.918Z,97.87
2018-01-03T11:04:43.907Z,97.49
2018-01-03T11:05:43.923Z,97.21
2018-01-03T11:06:43.924Z,97.11
2018-01-03T11:07:43.925Z,96.55
2018-01-03T11:08:43.885Z,97.11
2018-01-03T11:09:43.883Z,96.83
2018-01-03T11:10:43.922Z,96.73
2018-01-03T11:11:43.879Z,96.64
2018-01-03T11:12:43.931Z,97.68
2018-01-03T11:13:43.905Z,97.97
2018-01-03T11:14:43.858Z,97.40
2018-01-03T11:15:43.835Z,96.64
2018-01-03T11:16:43.840Z,96.73
2018-01-03T11:17:43.827Z,97.21
2018-01-03T11:18:43.821Z,96.55
2018-01-03T11:19:43.817Z,96.64
2018-01-03T11:20:43.812Z,97.11
2018-01-03T11:21:43.812Z,97.21
2018-01-03T11:22:43.804Z,97.87
2018-01-03T11:23:43.799Z,97.68
2018-01-03T11:24:43.790Z,98.44
2018-01-03T11:25:43.794Z,98.58
2018-01-03T11:26:43.780Z,98.11
2018-01-03T11:27:43.776Z,98.11
2018-01-03T11:28:43.772Z,98.20
2018-01-03T11:29:43.768Z,98.68
2018-01-03T11:30:43.762Z,98.39
2018-01-03T11:31:43.758Z,98.39
2018-01-03T11:32:43.751Z,98.96
2018-01-03T11:33:43.747Z,97.92
2018-01-03T11:34:43.740Z,96.92
2018-01-03T11:35:43.736Z,95.60
2018-01-03T11:36:43.730Z,96.26
2018-01-03T11:37:43.725Z,95.88
2018-01-03T11:38:43.720Z,96.07
2018-01-03T11:39:43.713Z,96.07
2018-01-03T11:40:43.709Z,96.07
2018-01-03T11:41:43.705Z,95.79
2018-01-03T11:42:43.700Z,94.93
2018-01-03T11:43:43.695Z,95.31
2018-01-03T11:44:43.693Z,95.41
2018-01-03T11:45:43.684Z,95.69
2018-01-03T11:46:43.682Z,96.73
2018-01-03T11:47:43.673Z,96.83
2018-01-03T11:48:43.667Z,96.83
2018-01-03T11:49:43.662Z,96.45
2018-01-03T11:50:43.659Z,96.07
2018-01-03T11:51:43.652Z,95.79
2018-01-03T11:52:43.647Z,95.88
2018-01-03T11:53:43.646Z,97.11
2018-01-03T11:54:43.638Z,96.83
2018-01-03T11:55:43.632Z,96.64
2018-01-03T11:56:43.628Z,97.02
2018-01-03T11:57:43.625Z,97.49
2018-01-03T11:58:43.619Z,97.68
2018-01-03T11:59:43.611Z,96.83
2018-01-03T12:00:43.606Z,97.59
2018-01-03T12:01:43.602Z,97.59
2018-01-03T12:02:43.601Z,97.59
2018-01-03T12:03:43.590Z,97.02
2018-01-03T12:04:43.584Z,95.69
2018-01-03T12:05:43.584Z,95.98
2018-01-03T12:06:43.573Z,95.41
2018-01-03T12:07:43.585Z,95.50
2018-01-03T12:08:43.565Z,95.31
2018-01-03T12:09:43.559Z,95.60
2018-01-03T12:10:43.556Z,95.88
2018-01-03T12:11:43.553Z,96.07
2018-01-03T12:12:43.543Z,95.60
2018-01-03T12:13:43.540Z,96.17
2018-01-03T12:14:43.534Z,96.17
2018-01-03T12:15:43.542Z,95.98
2018-01-03T12:16:43.524Z,96.26
2018-01-03T12:17:43.517Z,96.45
2018-01-03T12:18:43.514Z,95.88
2018-01-03T12:19:43.507Z,96.45
2018-01-03T12:20:43.504Z,96.07
2018-01-03T12:21:43.499Z,96.64
2018-01-03T12:22:43.492Z,96.92
2018-01-03T12:23:43.485Z,95.69
2018-01-03T12:24:43.481Z,95.88
2018-01-03T12:25:43.476Z,95.88
2018-01-03T12:26:43.473Z,95.88
2018-01-03T12:27:43.466Z,96.92
2018-01-03T12:28:43.461Z,96.92
2018-01-03T12:29:43.456Z,96.92
2018-01-03T12:30:43.453Z,96.73
2018-01-03T12:31:43.445Z,96.83
2018-01-03T12:32:43.473Z,97.59
2018-01-03T12:33:43.437Z,96.92
2018-01-03T12:34:43.431Z,97.40
2018-01-03T12:35:43.425Z,96.73
2018-01-03T12:36:43.434Z,96.64
2018-01-03T12:37:43.416Z,96.26
2018-01-03T12:38:43.410Z,96.83
2018-01-03T12:39:43.402Z,96.26
2018-01-03T12:40:43.400Z,96.73
2018-01-03T12:41:43.397Z,95.60
2018-01-03T12:42:43.388Z,95.79
2018-01-03T12:43:43.383Z,95.41
2018-01-03T12:44:43.379Z,93.37
2018-01-03T12:45:43.376Z,91.85
2018-01-03T12:46:43.367Z,92.52
2018-01-03T12:47:43.361Z,93.46
2018-01-03T12:48:43.357Z,93.37
2018-01-03T12:49:43.406Z,92.99
2018-01-03T12:50:43.360Z,93.42
2018-01-03T12:51:43.340Z,94.18
2018-01-03T12:52:43.338Z,93.75
2018-01-03T12:53:43.332Z,92.04
2018-01-03T12:54:43.328Z,92.80
2018-01-03T12:55:43.319Z,92.76
2018-01-03T12:56:43.315Z,93.51
2018-01-03T12:57:43.310Z,93.56
2018-01-03T12:58:43.307Z,94.04
2018-01-03T12:59:43.317Z,93.56
2018-01-03T13:00:43.295Z,94.13
2018-01-03T13:01:43.290Z,92.71
2018-01-03T13:02:43.287Z,92.99
2018-01-03T13:03:43.280Z,92.90
2018-01-03T13:04:43.273Z,93.08